KSMX/SMX METAR and TAF weather

Enter ICAO airport designator
Station Type Date Time Source
KSMX METAR 2019/04/18 13:51 UTC NOAA

KSMX 181351Z 17003KT 7SM FEW200 09/07 A3009 RMK AO2 SLP190 T00940072


Station Type Date Time Source
KSMX Decoded METAR 2019/04/18 13:51 UTC NOAA

SANTA MARIA PUBLIC AIRPORT, CA, United States (KSMX) 34-54N 120-28W 74M
Apr 18, 2019 - 09:51 AM EDT / 2019.04.18 1351 UTC
Wind: from the S (170 degrees) at 3 MPH (3 KT):0
Visibility: 7 mile(s):0
Sky conditions: mostly clear
Temperature: 48.9 F (9.4 C)
Dew Point: 45.0 F (7.2 C)
Relative Humidity: 86%
Pressure (altimeter): 30.09 in. Hg (1018 hPa)
ob: KSMX 181351Z 17003KT 7SM FEW200 09/07 A3009 RMK AO2 SLP190 T00940072
cycle: 14

Station Type Date Time Source
KSMX TAF 2019/04/18 12:34 UTC NOAA

TAF KSMX 181131Z 1812/1912 VRB03KT P6SM SCT250
FM181600 VRB03KT P6SM SCT250
FM182000 30010KT P6SM SCT250
FM190300 VRB03KT P6SM SCT250
FM190900 VRB03KT 4SM BR BKN003

Example: see airport list